Time;durP1;ratioP1;P1;durP2;ratioP2;P2;SDS_P1;SDS_P2;PMS_P1;PMS_P2;Temp;Humidity;BMP_temperature;BMP_pressure;BME280_temperature;BME280_humidity;BME280_pressure;Samples;Min_cycle;Max_cycle;Signal;HPM_P1;HPM_P2
2023/10/04 00:01:10;;;;;;;8.88;4.45;;;12.20;99.90;;;;;;5097328;28;20116;-70
2023/10/04 00:03:38;;;;;;;13.25;5.00;;;12.20;99.90;;;;;;5096562;28;20477;-70
2023/10/04 00:06:03;;;;;;;16.27;4.90;;;12.20;99.90;;;;;;5096683;28;20381;-70
2023/10/04 00:08:29;;;;;;;13.38;4.82;;;12.20;99.90;;;;;;5096703;28;20020;-70
2023/10/04 00:10:54;;;;;;;11.25;4.95;;;12.20;99.90;;;;;;5097190;28;20059;-70
2023/10/04 00:13:20;;;;;;;10.93;4.25;;;12.20;99.90;;;;;;5096371;28;20156;-70
2023/10/04 00:15:45;;;;;;;10.38;4.70;;;12.20;99.90;;;;;;5096861;28;20038;-70
2023/10/04 00:18:11;;;;;;;12.38;4.95;;;12.20;99.90;;;;;;5095817;28;20024;-70
2023/10/04 00:20:38;;;;;;;8.35;4.70;;;12.20;99.90;;;;;;5096076;28;20077;-70
2023/10/04 00:23:04;;;;;;;9.90;4.78;;;12.20;99.90;;;;;;5096639;28;20366;-70
2023/10/04 00:25:33;;;;;;;13.05;5.38;;;12.20;99.90;;;;;;5096882;28;20024;-70
2023/10/04 00:27:59;;;;;;;11.98;4.65;;;12.20;99.90;;;;;;5096565;28;20419;-70
2023/10/04 00:30:26;;;;;;;9.63;4.57;;;12.20;99.90;;;;;;5096833;28;20021;-70
2023/10/04 00:32:53;;;;;;;10.68;4.82;;;12.30;99.90;;;;;;5096215;28;20017;-70
2023/10/04 00:35:20;;;;;;;13.57;5.28;;;12.20;99.90;;;;;;5095877;28;20543;-70
2023/10/04 00:37:51;;;;;;;12.02;4.60;;;12.30;99.90;;;;;;5096662;28;20090;-70
2023/10/04 00:40:22;;;;;;;13.00;4.80;;;12.30;99.90;;;;;;5095893;28;20024;-70
2023/10/04 00:42:50;;;;;;;10.35;4.57;;;12.40;99.90;;;;;;5096307;28;20028;-70
2023/10/04 00:45:16;;;;;;;10.57;4.35;;;12.30;99.90;;;;;;5096503;28;20026;-70
2023/10/04 00:47:50;;;;;;;13.25;4.55;;;12.30;99.90;;;;;;5095078;28;20036;-70
2023/10/04 00:50:18;;;;;;;11.68;4.00;;;12.30;99.90;;;;;;5096456;28;20020;-70
2023/10/04 00:52:47;;;;;;;14.07;5.10;;;12.30;99.90;;;;;;5095805;28;20036;-70
2023/10/04 00:55:16;;;;;;;10.70;4.65;;;12.20;99.90;;;;;;5095749;28;20108;-70
2023/10/04 00:57:42;;;;;;;10.10;4.55;;;12.30;99.90;;;;;;5096290;28;20085;-70
2023/10/04 01:00:10;;;;;;;12.55;4.28;;;12.20;99.90;;;;;;5095623;28;20034;-70
2023/10/04 01:02:37;;;;;;;16.33;4.95;;;12.20;99.90;;;;;;5096441;28;20028;-70
2023/10/04 01:05:03;;;;;;;14.05;5.22;;;12.20;99.90;;;;;;5095833;28;20077;-70
2023/10/04 01:07:30;;;;;;;15.23;4.90;;;12.20;99.90;;;;;;5095285;28;20028;-70
2023/10/04 01:09:55;;;;;;;11.88;4.88;;;12.20;99.90;;;;;;5095533;28;20478;-70
2023/10/04 01:12:22;;;;;;;13.88;4.05;;;12.20;99.90;;;;;;5095507;28;20047;-70
2023/10/04 01:14:49;;;;;;;11.40;4.32;;;12.10;99.90;;;;;;5095362;28;20490;-70
2023/10/04 01:17:16;;;;;;;10.65;4.38;;;12.10;99.90;;;;;;5095695;28;20068;-70
2023/10/04 01:19:42;;;;;;;9.27;4.47;;;12.10;99.90;;;;;;5094593;28;20085;-70
2023/10/04 01:22:07;;;;;;;10.93;4.93;;;12.10;99.90;;;;;;5095704;28;20028;-70
2023/10/04 01:24:34;;;;;;;14.27;4.72;;;12.10;99.90;;;;;;5095492;28;20054;-70
2023/10/04 01:27:00;;;;;;;15.77;4.65;;;12.10;99.90;;;;;;5094984;28;20114;-69
2023/10/04 01:29:25;;;;;;;14.38;5.00;;;12.00;99.90;;;;;;5095669;28;20516;-70
2023/10/04 01:31:52;;;;;;;13.93;4.88;;;12.00;99.90;;;;;;5095310;28;20024;-70
2023/10/04 01:34:18;;;;;;;13.57;4.07;;;12.00;99.90;;;;;;5094454;28;20024;-70
2023/10/04 01:36:43;;;;;;;10.88;4.85;;;12.00;99.90;;;;;;5095252;28;20111;-70
2023/10/04 01:39:15;;;;;;;15.82;4.95;;;11.90;99.90;;;;;;5095305;28;20028;-70
2023/10/04 01:41:41;;;;;;;15.82;5.20;;;12.00;99.90;;;;;;5094840;28;20024;-70
2023/10/04 01:44:09;;;;;;;17.13;5.15;;;12.00;99.90;;;;;;5095360;28;20035;-70
2023/10/04 01:46:37;;;;;;;12.45;4.88;;;12.00;99.90;;;;;;5094566;28;20055;-70
2023/10/04 01:49:02;;;;;;;11.90;4.15;;;12.00;99.90;;;;;;5095209;28;20521;-70
2023/10/04 01:51:29;;;;;;;11.10;4.50;;;12.00;99.90;;;;;;5094782;28;20103;-70
2023/10/04 01:53:58;;;;;;;13.00;4.70;;;12.00;99.90;;;;;;5094960;28;20143;-70
2023/10/04 01:56:23;;;;;;;11.00;4.50;;;12.00;99.90;;;;;;5094887;28;20119;-70
2023/10/04 01:58:49;;;;;;;15.38;5.32;;;12.00;99.90;;;;;;5094253;28;20452;-70
2023/10/04 02:01:14;;;;;;;10.77;4.40;;;12.00;99.90;;;;;;5094794;28;20076;-70
2023/10/04 02:03:40;;;;;;;14.65;4.50;;;11.90;99.90;;;;;;5094960;28;20089;-70
2023/10/04 02:06:08;;;;;;;17.83;5.18;;;12.00;99.90;;;;;;5094392;28;20036;-70
2023/10/04 02:08:33;;;;;;;18.00;5.45;;;12.00;99.90;;;;;;5094411;28;20031;-70
2023/10/04 02:10:59;;;;;;;11.95;4.35;;;12.00;99.90;;;;;;5094338;28;20385;-71
2023/10/04 02:13:27;;;;;;;13.65;5.18;;;12.00;99.90;;;;;;5094665;28;20351;-70
2023/10/04 02:15:53;;;;;;;9.93;4.22;;;12.00;99.90;;;;;;5094453;28;20480;-70
2023/10/04 02:18:20;;;;;;;14.25;4.78;;;12.00;99.90;;;;;;5094108;28;20048;-70
2023/10/04 02:20:48;;;;;;;14.20;5.03;;;11.90;99.90;;;;;;5094641;28;20020;-70
2023/10/04 02:23:15;;;;;;;12.32;4.38;;;11.90;99.90;;;;;;5094057;28;20020;-70
2023/10/04 02:25:41;;;;;;;14.57;4.70;;;12.00;99.90;;;;;;5094703;28;20074;-70
2023/10/04 02:28:11;;;;;;;13.50;4.68;;;12.00;99.90;;;;;;5094136;28;20051;-70
2023/10/04 02:30:37;;;;;;;11.38;4.43;;;12.00;99.90;;;;;;5094558;28;20096;-70
2023/10/04 02:33:13;;;;;;;17.02;5.75;;;12.00;99.90;;;;;;5094082;28;20027;-70
2023/10/04 02:35:44;;;;;;;18.70;5.38;;;12.10;99.90;;;;;;5094557;28;20024;-70
2023/10/04 02:38:27;;;;;;;14.05;4.22;;;12.10;99.90;;;;;;5094528;28;20028;-70
2023/10/04 02:40:54;;;;;;;16.07;5.47;;;12.10;99.90;;;;;;5094196;28;20032;-70
2023/10/04 02:43:21;;;;;;;13.73;4.55;;;12.10;99.90;;;;;;5093653;28;20024;-70
2023/10/04 02:45:49;;;;;;;18.63;4.85;;;12.10;99.90;;;;;;5094074;28;20040;-70
2023/10/04 02:48:14;;;;;;;13.38;4.30;;;12.10;99.90;;;;;;5093422;28;20059;-70
2023/10/04 02:50:40;;;;;;;15.30;4.43;;;12.20;99.90;;;;;;5094077;28;20370;-69
2023/10/04 02:53:07;;;;;;;16.60;4.90;;;12.20;99.90;;;;;;5094385;28;20020;-69
2023/10/04 02:55:32;;;;;;;14.02;4.68;;;12.10;99.90;;;;;;5093609;28;20024;-70
2023/10/04 02:57:59;;;;;;;13.27;4.28;;;12.10;99.90;;;;;;5093747;28;20024;-70
2023/10/04 03:00:25;;;;;;;13.90;5.05;;;12.10;99.90;;;;;;5093770;28;20073;-70
2023/10/04 03:02:52;;;;;;;15.35;5.35;;;12.10;99.90;;;;;;5093355;28;20036;-70
2023/10/04 03:05:19;;;;;;;12.23;4.57;;;12.10;99.90;;;;;;5093966;28;20036;-70
2023/10/04 03:07:47;;;;;;;16.80;4.65;;;12.10;99.90;;;;;;5093667;28;20081;-69
2023/10/04 03:10:14;;;;;;;16.85;4.68;;;12.20;99.90;;;;;;5093928;28;20054;-70
2023/10/04 03:12:41;;;;;;;13.57;4.60;;;12.30;99.90;;;;;;5093892;28;20030;-70
2023/10/04 03:15:07;;;;;;;11.85;4.07;;;12.20;99.90;;;;;;5094190;28;20027;-70
2023/10/04 03:17:33;;;;;;;12.45;4.40;;;12.20;99.90;;;;;;5093535;28;20156;-70
2023/10/04 03:20:00;;;;;;;20.45;5.25;;;12.30;99.90;;;;;;5093821;28;20419;-69
2023/10/04 03:22:26;;;;;;;12.75;4.95;;;12.30;99.90;;;;;;5094056;28;20485;-70
2023/10/04 03:24:53;;;;;;;12.45;4.60;;;12.30;99.90;;;;;;5093798;28;20028;-69
2023/10/04 03:27:21;;;;;;;12.32;4.75;;;12.30;99.90;;;;;;5093559;28;20028;-69
2023/10/04 03:29:48;;;;;;;10.38;4.10;;;12.30;99.90;;;;;;5096611;28;20454;-69
2023/10/04 03:32:14;;;;;;;12.68;4.88;;;12.30;99.90;;;;;;5097909;28;20028;-69
2023/10/04 03:34:40;;;;;;;18.15;4.50;;;12.30;99.90;;;;;;5097588;28;20017;-70
2023/10/04 03:37:08;;;;;;;17.27;4.22;;;12.30;99.90;;;;;;5097896;28;20028;-69
2023/10/04 03:39:36;;;;;;;14.48;4.70;;;12.30;99.90;;;;;;5097525;28;20537;-69
2023/10/04 03:42:01;;;;;;;13.20;4.53;;;12.30;99.90;;;;;;5097753;28;20111;-70
2023/10/04 03:44:29;;;;;;;15.27;4.70;;;12.30;99.90;;;;;;5097698;28;20445;-69
2023/10/04 03:46:54;;;;;;;13.80;4.40;;;12.40;99.90;;;;;;5096516;28;20043;-70
2023/10/04 03:49:21;;;;;;;10.15;4.35;;;12.30;99.90;;;;;;5097620;28;20028;-70
2023/10/04 03:51:52;;;;;;;19.63;4.88;;;12.40;99.90;;;;;;5097095;28;20051;-70
2023/10/04 03:54:18;;;;;;;18.08;4.55;;;12.40;99.90;;;;;;5097585;28;20046;-69
2023/10/04 03:56:43;;;;;;;15.55;4.95;;;12.40;99.90;;;;;;5097486;28;20024;-70
2023/10/04 03:59:10;;;;;;;13.43;4.65;;;12.40;99.90;;;;;;5097232;28;20028;-70
2023/10/04 04:01:37;;;;;;;17.80;4.30;;;12.40;99.90;;;;;;5096737;28;20426;-70
2023/10/04 04:04:07;;;;;;;17.42;4.43;;;12.40;99.90;;;;;;5076770;28;20470;-70
2023/10/04 04:06:32;;;;;;;15.63;4.82;;;12.50;99.90;;;;;;5076932;28;20081;-70
2023/10/04 04:09:01;;;;;;;12.70;4.30;;;12.50;99.90;;;;;;5076075;28;20107;-70
2023/10/04 04:11:27;;;;;;;12.30;4.35;;;12.50;99.90;;;;;;5076365;28;20384;-70
2023/10/04 04:13:52;;;;;;;12.38;3.97;;;12.50;99.90;;;;;;5076348;28;20035;-70
2023/10/04 04:16:18;;;;;;;16.27;5.40;;;12.50;99.90;;;;;;5076812;28;20038;-70
2023/10/04 04:18:47;;;;;;;15.63;4.82;;;12.50;99.90;;;;;;5076820;28;20039;-70
2023/10/04 04:21:13;;;;;;;15.95;4.55;;;12.40;99.90;;;;;;5075922;28;20129;-70
2023/10/04 04:23:38;;;;;;;12.93;4.50;;;12.50;99.90;;;;;;5076349;28;20038;-70
2023/10/04 04:26:07;;;;;;;15.80;4.80;;;12.40;99.90;;;;;;5076306;28;20360;-70
2023/10/04 04:28:36;;;;;;;20.52;5.00;;;12.40;99.90;;;;;;5076177;28;20047;-70
2023/10/04 04:31:05;;;;;;;16.30;5.00;;;12.40;99.90;;;;;;5075958;28;20025;-70
2023/10/04 04:33:31;;;;;;;13.73;5.03;;;12.40;99.90;;;;;;5076498;28;20024;-70
2023/10/04 04:36:05;;;;;;;20.00;5.35;;;12.30;99.90;;;;;;5076502;28;20501;-70
2023/10/04 04:38:30;;;;;;;13.07;4.85;;;12.30;99.90;;;;;;5076459;28;20374;-70
2023/10/04 04:40:56;;;;;;;16.70;5.10;;;12.30;99.90;;;;;;5075599;28;20024;-70
2023/10/04 04:43:36;;;;;;;12.48;5.25;;;12.30;99.90;;;;;;5076279;28;20336;-70
2023/10/04 04:46:05;;;;;;;20.52;5.43;;;12.30;99.90;;;;;;5075512;28;20394;-70
2023/10/04 04:48:36;;;;;;;15.68;5.38;;;12.20;99.90;;;;;;5075695;28;20111;-70
2023/10/04 04:51:07;;;;;;;17.50;5.38;;;12.20;99.90;;;;;;5075705;28;20024;-70
2023/10/04 04:53:33;;;;;;;17.85;5.30;;;12.30;99.90;;;;;;5075313;28;20024;-70
2023/10/04 04:56:00;;;;;;;17.27;5.10;;;12.20;99.90;;;;;;5075552;28;20074;-70
2023/10/04 04:58:28;;;;;;;15.95;6.18;;;12.20;99.90;;;;;;5075837;28;20055;-70
2023/10/04 05:00:56;;;;;;;20.52;5.35;;;12.10;99.90;;;;;;5075304;28;20031;-70
2023/10/04 05:03:24;;;;;;;15.75;5.43;;;12.10;99.90;;;;;;5075346;28;20049;-70
2023/10/04 05:05:49;;;;;;;22.10;6.03;;;12.10;99.90;;;;;;5075867;28;20103;-70
2023/10/04 05:08:17;;;;;;;20.63;5.88;;;12.10;99.90;;;;;;5075500;28;20120;-70
2023/10/04 05:10:44;;;;;;;15.88;5.82;;;12.10;99.90;;;;;;5075804;28;20108;-70
2023/10/04 05:13:13;;;;;;;13.77;5.43;;;12.00;99.90;;;;;;5075731;28;20021;-70
2023/10/04 05:15:42;;;;;;;16.75;5.93;;;12.00;99.90;;;;;;5075164;28;20032;-70
2023/10/04 05:18:15;;;;;;;17.10;5.22;;;12.00;99.90;;;;;;5075665;28;20028;-70
2023/10/04 05:20:41;;;;;;;16.63;5.80;;;12.00;99.90;;;;;;5075067;28;20482;-70
2023/10/04 05:23:09;;;;;;;15.20;5.72;;;12.00;99.90;;;;;;5075042;28;20070;-70
2023/10/04 05:25:34;;;;;;;15.02;5.72;;;12.00;99.90;;;;;;5075061;28;20028;-70
2023/10/04 05:28:04;;;;;;;16.75;5.72;;;12.00;99.90;;;;;;5074841;28;20025;-70
2023/10/04 05:30:31;;;;;;;15.95;6.13;;;12.00;99.90;;;;;;5074817;28;20044;-70
2023/10/04 05:32:56;;;;;;;21.83;6.03;;;12.00;99.90;;;;;;5075244;28;20020;-70
2023/10/04 05:35:23;;;;;;;20.67;6.28;;;12.00;99.90;;;;;;5074750;28;20032;-70
2023/10/04 05:37:48;;;;;;;21.25;5.80;;;12.00;99.90;;;;;;5074773;28;20028;-70
2023/10/04 05:40:23;;;;;;;25.17;5.82;;;12.10;99.90;;;;;;5075174;28;20526;-70
2023/10/04 05:42:49;;;;;;;16.98;6.22;;;12.10;99.90;;;;;;5074646;28;20028;-70
2023/10/04 05:45:16;;;;;;;20.13;5.93;;;12.00;99.90;;;;;;5075109;28;20127;-70
2023/10/04 05:47:42;;;;;;;21.17;5.80;;;12.00;99.90;;;;;;5073775;28;20063;-70
2023/10/04 05:50:10;;;;;;;21.13;6.22;;;12.00;99.90;;;;;;5075013;28;20025;-70
2023/10/04 05:52:37;;;;;;;20.27;6.10;;;12.00;99.90;;;;;;5074273;28;20038;-70
2023/10/04 05:55:03;;;;;;;21.67;6.72;;;11.90;99.90;;;;;;5074529;28;20063;-70
2023/10/04 05:57:29;;;;;;;21.83;6.70;;;11.90;99.90;;;;;;5074299;28;20100;-70
2023/10/04 05:59:55;;;;;;;19.05;6.28;;;12.00;99.90;;;;;;5074254;28;20466;-70
2023/10/04 06:02:22;;;;;;;15.00;5.85;;;11.90;99.90;;;;;;5073098;28;20033;-70
2023/10/04 06:04:48;;;;;;;21.20;6.68;;;12.00;99.90;;;;;;5073781;28;20028;-70
2023/10/04 06:07:14;;;;;;;23.23;6.55;;;12.00;99.90;;;;;;5073237;28;20375;-70
2023/10/04 06:09:42;;;;;;;18.63;6.35;;;12.00;99.90;;;;;;5059197;28;20089;-70
2023/10/04 06:12:08;;;;;;;28.23;7.03;;;12.00;99.90;;;;;;5072689;28;20036;-70
2023/10/04 06:14:35;;;;;;;20.13;6.65;;;12.10;99.90;;;;;;5071833;28;20569;-70
2023/10/04 06:17:00;;;;;;;22.02;6.43;;;12.10;99.90;;;;;;5072534;28;20067;-70
2023/10/04 06:19:28;;;;;;;20.70;6.07;;;12.10;99.90;;;;;;5070493;28;20092;-70
2023/10/04 06:21:53;;;;;;;21.58;5.95;;;12.20;99.90;;;;;;5060611;28;20396;-70
2023/10/04 06:24:19;;;;;;;19.27;6.45;;;12.20;99.90;;;;;;5067897;28;20028;-70
2023/10/04 06:26:44;;;;;;;17.33;6.43;;;12.30;99.90;;;;;;5067745;28;20064;-70
2023/10/04 06:29:10;;;;;;;18.33;6.43;;;12.60;99.90;;;;;;5061413;28;20065;-70
2023/10/04 06:31:35;;;;;;;17.60;5.40;;;12.70;99.90;;;;;;5071819;28;20378;-70
2023/10/04 06:34:02;;;;;;;20.40;5.32;;;13.00;99.90;;;;;;5068128;28;20493;-69
2023/10/04 06:36:29;;;;;;;16.88;5.75;;;13.10;99.90;;;;;;5070246;28;20028;-70
2023/10/04 06:38:55;;;;;;;14.07;5.32;;;13.30;99.90;;;;;;5056985;28;20055;-70
2023/10/04 06:41:25;;;;;;;15.55;5.43;;;13.40;99.90;;;;;;5061561;28;20471;-70
2023/10/04 06:43:51;;;;;;;15.68;4.80;;;13.50;99.90;;;;;;5067412;28;20042;-69
2023/10/04 06:46:17;;;;;;;14.68;5.03;;;13.60;99.90;;;;;;5059899;28;20066;-70
2023/10/04 06:48:43;;;;;;;18.88;4.82;;;13.80;99.90;;;;;;5070775;28;20078;-70
2023/10/04 06:51:09;;;;;;;13.52;4.45;;;13.80;99.90;;;;;;5058998;28;20032;-70
2023/10/04 06:53:35;;;;;;;14.35;4.78;;;13.80;99.90;;;;;;5071595;28;20474;-70
2023/10/04 06:56:01;;;;;;;17.90;4.88;;;14.00;99.90;;;;;;5069141;28;20028;-70
2023/10/04 06:58:28;;;;;;;18.67;4.43;;;14.00;99.90;;;;;;5065230;28;20031;-70
2023/10/04 07:00:56;;;;;;;19.65;5.82;;;14.20;99.90;;;;;;5071779;28;20375;-70
2023/10/04 07:03:22;;;;;;;21.10;6.00;;;14.30;99.90;;;;;;5064545;28;20032;-70
2023/10/04 07:05:49;;;;;;;12.18;4.72;;;14.50;99.90;;;;;;5070610;28;20475;-70
2023/10/04 07:08:16;;;;;;;14.05;4.90;;;14.60;88.40;;;;;;5069562;28;20021;-70
2023/10/04 07:10:42;;;;;;;15.98;5.25;;;14.60;96.40;;;;;;5070633;28;20081;-70
2023/10/04 07:13:08;;;;;;;14.18;4.63;;;15.00;87.80;;;;;;5069771;28;20169;-70
2023/10/04 07:15:39;;;;;;;19.33;5.22;;;15.30;37.40;;;;;;5067154;28;20060;-70
2023/10/04 07:18:06;;;;;;;13.75;4.82;;;15.30;32.20;;;;;;5069179;28;20032;-71
2023/10/04 07:20:33;;;;;;;12.20;4.57;;;15.10;62.90;;;;;;5064104;28;20029;-70
2023/10/04 07:22:59;;;;;;;15.95;4.78;;;15.30;45.30;;;;;;5076350;28;20024;-70
2023/10/04 07:25:27;;;;;;;16.33;5.32;;;15.30;17.70;;;;;;5065706;28;20036;-70
2023/10/04 07:27:55;;;;;;;17.15;5.55;;;15.10;45.40;;;;;;5065443;28;20029;-70
2023/10/04 07:30:22;;;;;;;16.88;5.25;;;15.40;39.40;;;;;;5072541;28;20029;-70
2023/10/04 07:32:48;;;;;;;11.15;4.82;;;15.40;33.60;;;;;;5068598;28;20480;-70
2023/10/04 07:35:18;;;;;;;12.05;4.68;;;15.50;26.70;;;;;;5074894;28;20416;-70
2023/10/04 07:37:45;;;;;;;17.50;5.35;;;15.80;4.10;;;;;;5073479;28;20078;-71
2023/10/04 07:40:14;;;;;;;14.70;4.72;;;15.80;1.00;;;;;;5075175;28;20029;-70
2023/10/04 07:42:41;;;;;;;17.83;4.60;;;16.00;1.00;;;;;;5069958;28;20500;-70
2023/10/04 07:45:07;;;;;;;11.88;3.63;;;16.00;1.00;;;;;;5068381;28;20378;-70
2023/10/04 07:47:36;;;;;;;14.98;4.88;;;16.50;1.00;;;;;;5067901;28;20044;-71
2023/10/04 07:50:03;;;;;;;13.10;4.43;;;16.30;1.00;;;;;;5072699;28;20482;-71
2023/10/04 07:52:29;;;;;;;13.85;4.47;;;16.50;1.00;;;;;;5067105;28;20028;-70
2023/10/04 07:54:57;;;;;;;15.13;5.15;;;16.50;1.00;;;;;;5067593;28;20032;-70
2023/10/04 07:57:22;;;;;;;14.07;4.40;;;16.20;1.00;;;;;;5055286;28;20025;-70
2023/10/04 07:59:48;;;;;;;17.45;4.82;;;16.90;1.00;;;;;;5064919;28;20043;-71
2023/10/04 08:02:13;;;;;;;20.35;5.35;;;17.40;1.00;;;;;;5070824;28;20147;-71
2023/10/04 08:04:39;;;;;;;14.68;4.70;;;17.40;1.00;;;;;;5069900;28;20076;-70
2023/10/04 08:07:12;;;;;;;15.93;4.95;;;17.00;1.00;;;;;;5070987;28;20033;-70
2023/10/04 08:09:38;;;;;;;16.23;4.82;;;16.80;1.00;;;;;;5061348;28;20082;-70
2023/10/04 08:12:07;;;;;;;15.88;5.03;;;16.50;1.00;;;;;;5066758;28;20452;-71
2023/10/04 08:14:32;;;;;;;18.15;4.88;;;16.60;1.00;;;;;;5069283;28;20024;-70
2023/10/04 08:16:59;;;;;;;17.00;4.88;;;16.60;1.00;;;;;;5065775;28;20039;-72
2023/10/04 08:19:26;;;;;;;16.65;4.70;;;16.50;1.00;;;;;;5070908;28;20048;-70
2023/10/04 08:21:52;;;;;;;12.85;4.57;;;17.00;1.00;;;;;;5061073;28;20028;-70
2023/10/04 08:24:17;;;;;;;15.35;4.15;;;16.90;1.00;;;;;;5069742;28;20474;-70
2023/10/04 08:26:43;;;;;;;17.75;5.05;;;16.80;1.00;;;;;;5072554;28;20075;-70
2023/10/04 08:29:10;;;;;;;15.90;4.68;;;16.70;1.00;;;;;;5068378;28;20024;-70
2023/10/04 08:31:36;;;;;;;10.57;4.30;;;16.80;1.00;;;;;;5056490;28;20502;-70
2023/10/04 08:34:03;;;;;;;13.80;4.25;;;16.70;1.00;;;;;;5062238;28;20116;-70
2023/10/04 08:36:28;;;;;;;21.13;5.68;;;16.80;1.00;;;;;;5070844;28;20085;-70
2023/10/04 08:38:54;;;;;;;13.57;4.53;;;17.10;1.00;;;;;;5075144;28;20436;-70
2023/10/04 08:41:20;;;;;;;17.58;5.00;;;17.30;1.00;;;;;;5075401;28;20043;-70
2023/10/04 08:43:47;;;;;;;15.70;5.70;;;17.40;1.00;;;;;;5069283;28;20094;-70
2023/10/04 08:46:17;;;;;;;14.52;4.30;;;17.30;1.00;;;;;;5070186;28;20127;-71
2023/10/04 08:48:49;;;;;;;16.00;4.65;;;17.50;1.00;;;;;;5072031;28;20028;-71
2023/10/04 08:51:28;;;;;;;13.25;4.35;;;17.50;1.00;;;;;;5070150;28;20025;-70
2023/10/04 08:54:09;;;;;;;13.13;4.70;;;17.30;1.00;;;;;;5073395;28;20168;-70
2023/10/04 08:56:44;;;;;;;17.48;5.47;;;17.30;1.00;;;;;;5074790;28;20055;-70
2023/10/04 08:59:11;;;;;;;13.63;4.78;;;17.30;1.00;;;;;;5070430;28;20394;-71
2023/10/04 09:01:39;;;;;;;13.82;4.78;;;17.60;99.90;;;;;;5065665;28;20086;-71
2023/10/04 09:04:06;;;;;;;14.50;4.55;;;17.40;1.00;;;;;;5071902;28;20551;-71
2023/10/04 09:06:32;;;;;;;13.82;4.53;;;17.90;1.00;;;;;;5072969;28;20056;-70
2023/10/04 09:08:58;;;;;;;14.32;4.97;;;17.30;1.00;;;;;;5065440;28;20016;-71
2023/10/04 09:11:23;;;;;;;18.63;5.30;;;17.80;1.00;;;;;;5069332;28;20024;-70
2023/10/04 09:13:52;;;;;;;15.10;4.63;;;17.60;99.90;;;;;;5068905;28;20031;-71
2023/10/04 09:16:22;;;;;;;18.08;5.25;;;17.90;99.90;;;;;;5065556;28;20560;-70
2023/10/04 09:18:48;;;;;;;12.35;4.63;;;17.90;99.90;;;;;;5069387;28;20119;-71
2023/10/04 09:21:15;;;;;;;14.38;4.57;;;17.50;99.90;;;;;;5059309;28;20052;-70
2023/10/04 09:23:43;;;;;;;15.85;4.90;;;17.80;99.90;;;;;;5067066;28;20028;-70
2023/10/04 09:26:16;;;;;;;14.00;4.50;;;18.30;99.90;;;;;;5064291;28;20375;-71
2023/10/04 09:28:42;;;;;;;14.73;4.72;;;18.60;99.90;;;;;;5060561;28;20028;-70
2023/10/04 09:31:10;;;;;;;14.68;4.40;;;18.80;99.90;;;;;;5064935;28;20033;-70
2023/10/04 09:33:36;;;;;;;14.98;4.65;;;19.20;99.90;;;;;;5069897;28;20108;-70
2023/10/04 09:36:01;;;;;;;17.00;4.68;;;18.90;99.90;;;;;;5073038;28;20107;-70
2023/10/04 09:38:29;;;;;;;17.63;4.90;;;18.60;99.90;;;;;;5068724;28;20118;-71
2023/10/04 09:40:56;;;;;;;18.52;4.57;;;18.70;97.40;;;;;;5072214;28;20386;-71
2023/10/04 09:43:33;;;;;;;16.05;4.50;;;18.70;1.00;;;;;;5071280;28;20509;-70
2023/10/04 09:45:59;;;;;;;18.85;4.50;;;18.90;1.00;;;;;;5057179;28;20055;-71
2023/10/04 09:48:31;;;;;;;19.33;5.18;;;18.90;1.00;;;;;;5063824;28;20033;-72
2023/10/04 09:51:02;;;;;;;14.52;4.30;;;19.10;1.00;;;;;;5061955;28;20017;-70
2023/10/04 09:53:29;;;;;;;12.23;4.75;;;19.10;1.00;;;;;;5067949;28;20028;-72
2023/10/04 09:55:59;;;;;;;14.55;5.03;;;19.20;1.00;;;;;;5059957;28;20112;-70
2023/10/04 09:58:31;;;;;;;17.90;4.93;;;18.40;1.00;;;;;;5065381;28;20029;-71
2023/10/04 10:01:08;;;;;;;12.60;4.90;;;18.40;1.00;;;;;;5063794;28;20029;-71
2023/10/04 10:03:43;;;;;;;14.50;4.53;;;18.30;1.00;;;;;;5070631;28;20118;-71
2023/10/04 10:06:11;;;;;;;17.08;4.60;;;18.50;99.90;;;;;;5071209;28;20047;-71
2023/10/04 10:08:40;;;;;;;20.08;5.20;;;18.50;1.00;;;;;;5073698;28;20029;-71
2023/10/04 10:11:07;;;;;;;15.40;5.00;;;18.40;99.90;;;;;;5065942;28;20025;-71
2023/10/04 10:13:33;;;;;;;17.08;5.15;;;18.80;16.20;;;;;;5070821;28;20028;-71
2023/10/04 10:16:00;;;;;;;18.38;5.03;;;19.50;12.80;;;;;;5069919;28;20136;-71
2023/10/04 10:18:25;;;;;;;14.25;5.45;;;19.80;99.90;;;;;;5074685;28;20021;-71
2023/10/04 10:20:51;;;;;;;16.63;5.53;;;19.10;1.00;;;;;;5058141;28;20025;-71
2023/10/04 10:23:17;;;;;;;14.45;4.95;;;18.90;1.00;;;;;;5065487;28;20048;-71
2023/10/04 10:26:18;;;;;;;16.42;5.10;;;18.60;99.90;;;;;;5061611;28;20032;-71
2023/10/04 10:28:47;;;;;;;14.75;5.32;;;18.30;1.00;;;;;;5066553;28;20142;-72
2023/10/04 10:31:21;;;;;;;14.40;5.25;;;18.40;99.90;;;;;;5068044;28;20573;-71
2023/10/04 10:33:47;;;;;;;19.63;5.15;;;18.70;99.90;;;;;;5071526;28;20095;-72
2023/10/04 10:36:22;;;;;;;15.68;5.00;;;19.00;99.90;;;;;;5060260;28;20094;-71
2023/10/04 10:38:49;;;;;;;13.23;5.25;;;19.10;87.10;;;;;;5054711;28;20430;-72
2023/10/04 10:41:36;;;;;;;18.30;6.30;;;18.70;99.90;;;;;;5064964;28;20486;-71
2023/10/04 10:44:19;;;;;;;13.52;5.88;;;18.50;1.00;;;;;;5071221;28;20032;-70
2023/10/04 10:49:56;;;;;;;15.68;5.38;;;18.10;99.90;;;;;;5067869;28;20469;-70
2023/10/04 10:52:26;;;;;;;15.02;5.55;;;18.30;1.00;;;;;;5066487;28;20025;-69
2023/10/04 10:54:55;;;;;;;15.75;5.88;;;18.40;99.90;;;;;;5059271;28;20025;-68
2023/10/04 10:57:23;;;;;;;14.57;5.43;;;18.20;99.90;;;;;;5060029;28;20083;-69
2023/10/04 10:59:50;;;;;;;13.95;5.30;;;18.50;99.90;;;;;;5059099;28;20045;-69
2023/10/04 11:02:15;;;;;;;11.55;5.13;;;18.70;1.00;;;;;;5068940;28;20029;-70
2023/10/04 11:04:41;;;;;;;16.38;5.45;;;18.20;33.80;;;;;;5043586;28;20037;-69
2023/10/04 11:07:07;;;;;;;14.68;5.65;;;18.50;1.00;;;;;;5042915;28;20033;-70
2023/10/04 11:09:38;;;;;;;18.58;5.68;;;18.90;99.90;;;;;;5043399;28;20128;-69
2023/10/04 11:12:07;;;;;;;12.60;5.50;;;18.80;99.90;;;;;;5049247;28;20060;-69
2023/10/04 11:14:34;;;;;;;14.50;5.80;;;18.90;18.10;;;;;;5039657;28;20034;-69
2023/10/04 11:17:01;;;;;;;15.43;5.55;;;18.20;99.90;;;;;;5060525;28;20433;-69
2023/10/04 11:19:26;;;;;;;16.08;5.57;;;18.10;99.90;;;;;;5062937;28;20025;-69
2023/10/04 11:21:52;;;;;;;15.57;6.30;;;17.70;1.00;;;;;;5049398;28;20038;-69
2023/10/04 11:24:20;;;;;;;15.93;6.82;;;17.60;99.90;;;;;;5043154;28;20029;-69
2023/10/04 11:26:46;;;;;;;17.02;6.22;;;17.50;99.90;;;;;;5040848;28;20028;-69
2023/10/04 11:29:12;;;;;;;15.05;6.20;;;17.60;99.90;;;;;;5041097;28;20030;-70
2023/10/04 11:31:38;;;;;;;15.38;6.20;;;17.60;1.00;;;;;;5046498;28;20033;-69
2023/10/04 11:34:04;;;;;;;17.80;6.20;;;17.90;99.90;;;;;;5045320;28;20025;-70
2023/10/04 11:36:34;;;;;;;15.50;7.18;;;18.00;1.00;;;;;;5049642;28;21396;-70
2023/10/04 11:39:00;;;;;;;14.80;5.20;;;18.00;99.90;;;;;;5047744;28;20060;-69
2023/10/04 11:41:29;;;;;;;14.10;5.97;;;17.90;1.00;;;;;;5046628;28;20025;-69
2023/10/04 11:44:02;;;;;;;17.38;6.50;;;17.70;1.00;;;;;;5050807;28;20052;-69
2023/10/04 11:46:28;;;;;;;16.98;6.40;;;17.70;39.70;;;;;;5042072;28;20030;-69
2023/10/04 11:49:11;;;;;;;16.65;6.43;;;17.50;99.90;;;;;;5040266;28;20048;-69
2023/10/04 11:51:39;;;;;;;17.85;5.70;;;17.60;1.00;;;;;;5041175;28;20033;-69
2023/10/04 11:54:05;;;;;;;11.60;5.07;;;17.60;90.60;;;;;;5045467;28;20025;-70
2023/10/04 11:56:39;;;;;;;15.27;5.93;;;17.80;1.00;;;;;;5046693;28;20026;-70
2023/10/04 11:59:05;;;;;;;14.93;5.78;;;17.50;65.30;;;;;;5033193;28;20033;-71
2023/10/04 12:01:30;;;;;;;12.88;5.57;;;17.90;1.00;;;;;;5027677;28;20461;-69
2023/10/04 12:03:56;;;;;;;13.32;5.40;;;17.90;99.90;;;;;;5029632;28;20083;-70
2023/10/04 12:06:30;;;;;;;18.00;6.22;;;18.00;99.90;;;;;;5030589;28;20490;-70
2023/10/04 12:08:58;;;;;;;11.50;5.55;;;18.00;99.90;;;;;;5031235;28;20026;-71
2023/10/04 12:11:25;;;;;;;13.50;5.50;;;18.20;99.90;;;;;;5032482;28;20439;-69
2023/10/04 12:13:51;;;;;;;15.10;6.28;;;18.00;90.20;;;;;;5033713;28;20029;-69
2023/10/04 12:16:17;;;;;;;13.63;5.25;;;18.00;1.00;;;;;;5033532;28;20026;-69
2023/10/04 12:18:43;;;;;;;12.02;5.63;;;17.90;99.90;;;;;;5028883;28;20121;-71
2023/10/04 12:21:09;;;;;;;15.05;5.45;;;17.90;1.00;;;;;;5024034;28;20545;-69
2023/10/04 12:23:35;;;;;;;15.00;5.78;;;18.10;99.90;;;;;;5028059;28;20095;-69
2023/10/04 12:26:01;;;;;;;17.90;5.80;;;18.00;99.90;;;;;;5035056;28;20037;-70
2023/10/04 12:28:30;;;;;;;13.68;5.20;;;18.10;99.90;;;;;;5035247;28;20041;-69
2023/10/04 12:31:01;;;;;;;12.80;5.45;;;18.10;99.90;;;;;;5027878;28;20050;-69
2023/10/04 12:33:29;;;;;;;13.15;5.43;;;18.20;99.90;;;;;;5033016;28;20459;-70
2023/10/04 12:35:55;;;;;;;14.77;5.32;;;18.20;99.90;;;;;;5032129;28;20033;-70
2023/10/04 12:38:24;;;;;;;12.27;5.22;;;18.30;99.90;;;;;;5030807;28;20033;-70
2023/10/04 12:40:50;;;;;;;12.98;5.47;;;18.30;99.90;;;;;;5025499;28;20022;-69
2023/10/04 12:43:16;;;;;;;14.85;5.55;;;18.10;1.00;;;;;;5031550;28;20039;-69